• Join FlightAware (Why Join?)
  • Login
  • US Flag 
11:49PM EDT


 

Airport Tracker/Info


-or-


 

Live Flight TrackerFlight Track Log ✈ ASQ5013 ✈ 23-Apr-2013 ✈ KPHF - KATL

Flight Track Log - Related Links

Times and Time Zones

All times are in EDT time to prevent confusion due to time zone crossing. See the ASQ5013 flight status page for this flight to view local times or setup timezone preferences in your user account.

Time Position Orientation Groundspeed Altitude Reporting Facility
EDT Latitude Longitude Course Direction KTS MPH feet Rate Location/Type
04:36PM 37.1794 -76.4494 29° Northeast 218 251 3,900  Level Washington Center
04:37PM 37.1664 -76.5222 257° West 277 319 4,900 900 Climbing Washington Center
04:38PM 37.1453 -76.5481 224° Southwest 274 315 5,200 2,400 Climbing Washington Center
04:39PM 37.1158 -76.5894 228° Southwest 271 312 7,400 2,880 Climbing Washington Center
04:39PM 37.0883 -76.6125 214° Southwest 267 307 8,100 2,460 Climbing Washington Center
04:40PM 37.0358 -76.6717 222° Southwest 284 327 10,800 2,580 Climbing Washington Center
04:41PM 36.9725 -76.7383 220° Southwest 289 333 13,300 2,160 Climbing Washington Center
04:42PM 36.9094 -76.8050 220° Southwest 294 338 15,200 1,380 Climbing Washington Center
04:43PM 36.8356 -76.8842 221° Southwest 324 373 16,100 1,260 Climbing Washington Center
04:44PM 36.7553 -76.9686 220° Southwest 357 411 17,800 1,500 Climbing Washington Center
04:45PM 36.6875 -77.0656 229° Southwest 369 425 19,100 1,260 Climbing Washington Center
04:46PM 36.6358 -77.1761 240° Southwest 374 430 20,400 1,260 Climbing Washington Center
04:47PM 36.5842 -77.2914 241° Southwest 386 444 21,700 1,200 Climbing Washington Center
04:48PM 36.5303 -77.4067 240° Southwest 386 444 22,900 1,080 Climbing Washington Center
04:49PM 36.4767 -77.5164 239° Southwest 404 465 23,900 960 Climbing Washington Center
04:50PM 36.3850 -77.6225 223° Southwest 404 465 24,900 840 Climbing Washington Center
04:51PM 36.2897 -77.7128 217° Southwest 415 478 25,600 720 Climbing Washington Center
04:52PM 36.1939 -77.8106 219° Southwest 440 506 26,400 720 Climbing Washington Center
04:53PM 36.0942 -77.9028 217° Southwest 451 519 27,100 660 Climbing Washington Center
04:54PM 35.9964 -77.9975 218° Southwest 451 519 27,800 600 Climbing Washington Center
04:56PM 35.7983 -78.1914 218° Southwest 456 525 28,900 480 Climbing Washington Center
04:57PM 35.6958 -78.2878 217° Southwest 456 525 29,400 480 Climbing Washington Center
04:58PM 35.5958 -78.3814 217° Southwest 456 525 29,900 300 Climbing Washington Center
04:59PM 35.4931 -78.4797 218° Southwest 461 531 30,000  Climbing Washington Center
05:00PM 35.4056 -78.5658 219° Southwest 456 525 30,000  Level Washington Center
05:01PM 35.3050 -78.6589 217° Southwest 456 525 30,000  Level Washington Center
05:02PM 35.2067 -78.7517 218° Southwest 456 525 30,000  Level Washington Center
05:03PM 35.1125 -78.8419 218° Southwest 451 519 30,000  Level Washington Center
05:04PM 35.0161 -78.9319 217° Southwest 451 519 30,000  Level Washington Center
05:05PM 34.9219 -79.0192 217° Southwest 451 519 30,000  Level Washington Center
05:07PM 34.7325 -79.2297 222° Southwest 411 473 30,000  Level Jacksonville Center
05:08PM 34.6836 -79.3503 244° Southwest 405 466 30,000  Level Jacksonville Center
05:09PM 34.6347 -79.4683 243° Southwest 405 466 30,000  Level Jacksonville Center
05:10PM 34.5858 -79.5889 244° Southwest 405 466 30,000  Level Jacksonville Center
05:11PM 34.5369 -79.7067 243° Southwest 399 459 30,000  Level Jacksonville Center
05:12PM 34.4878 -79.8319 245° Southwest 394 453 30,000  Level Jacksonville Center
05:13PM 34.4364 -79.9522 243° Southwest 394 453 30,000  Level Jacksonville Center
05:14PM 34.3889 -80.0694 244° Southwest 394 453 30,000  Level Jacksonville Center
05:15PM 34.3372 -80.1842 241° Southwest 399 459 30,000  Level Jacksonville Center
05:16PM 34.2875 -80.3014 243° Southwest 399 459 30,000  Level Jacksonville Center
05:17PM 34.2400 -80.4183 244° Southwest 399 459 30,000  Level Jacksonville Center
05:18PM 34.1900 -80.5353 243° Southwest 399 459 30,000  Level Jacksonville Center
05:19PM 34.1358 -80.6547 241° Southwest 399 459 30,000  Level Jacksonville Center
05:20PM 34.0878 -80.7714 244° Southwest 399 459 30,000  Level Jacksonville Center
05:21PM 34.0353 -80.8853 241° Southwest 399 459 30,000  Level Jacksonville Center
05:22PM 33.9850 -81.0042 243° Southwest 399 459 30,000  Level Jacksonville Center
05:23PM 33.9367 -81.1178 243° Southwest 399 459 30,000  Level Jacksonville Center
05:24PM 33.8819 -81.2339 240° Southwest 399 459 30,000  Level Jacksonville Center
05:25PM 33.8333 -81.3500 243° Southwest 399 459 30,000  Level Jacksonville Center
05:27PM 33.7319 -81.5758 242° Southwest 399 459 30,000  Level Atlanta Center
05:28PM 33.6778 -81.6897 240° Southwest 399 459 30,000  Level Atlanta Center
05:29PM 33.6342 -81.8058 246° West 399 459 30,000  Level Atlanta Center
05:30PM 33.5967 -81.9289 250° West 392 451 30,000  Level Atlanta Center
05:31PM 33.5589 -82.0494 249° West 387 445 30,000  Level Atlanta Center
05:32PM 33.5233 -82.1700 251° West 387 445 30,000  Level Atlanta Center
05:33PM 33.4914 -82.2678 249° West 387 445 30,000  Level Atlanta Center
05:34PM 33.4556 -82.4056 253° West 392 451 30,000  Level Atlanta Center
05:35PM 33.4156 -82.5256 248° West 387 445 30,000  Level Atlanta Center
05:36PM 33.3814 -82.6481 252° West 392 451 30,000 -300 Level Atlanta Center
05:37PM 33.3369 -82.7806 248° West 392 451 29,400 -960 Descending Atlanta Center
05:38PM 33.3025 -82.8931 250° West 392 451 28,100 -1,500 Descending Atlanta Center
05:39PM 33.2619 -83.0278 250° West 392 451 26,400 -1,620 Descending Atlanta Center
05:40PM 33.2275 -83.1447 251° West 387 445 24,900 -1,560 Descending Atlanta Center
05:41PM 33.1886 -83.2644 249° West 387 445 23,300 -1,560 Descending Atlanta Center
05:42PM 33.1536 -83.3739 249° West 378 435 21,800 -1,500 Descending Atlanta Center
05:43PM 33.0978 -83.4783 237° Southwest 372 428 20,300 -1,440 Descending Atlanta Center
05:44PM 33.0503 -83.5753 240° Southwest 372 428 19,000 -1,500 Descending Atlanta Center
05:45PM 33.0672 -83.6719 282° West 309 356 17,400 -1,920 Descending Atlanta Center
05:46PM 33.1667 -83.7667 321° Northwest 388 447 15,100 -1,560 Descending Atlanta TRACON
05:48PM 33.2911 -83.9219 314° West 362 417 12,800 -1,080 Descending Atlanta Center
05:49PM 33.3497 -84.0139 307° West 354 407 12,000 -420 Descending Atlanta Center
05:50PM 33.4103 -84.1036 309° West 348 400 12,000  Level Atlanta Center
05:51PM 33.4833 -84.2000 312° West 339 390 12,000  Level Atlanta TRACON
05:52PM 33.5333 -84.2833 306° West 257 296 12,000 -600 Level Atlanta TRACON
05:53PM 33.5500 -84.3500 287° West 238 274 10,900 -1,380 Descending Atlanta TRACON
05:54PM 33.5500 -84.4333 270° West 243 280 9,300 -1,680 Descending Atlanta TRACON
05:55PM 33.5500 -84.5000 270° West 226 260 7,600 -1,800 Descending Atlanta TRACON
05:57PM 33.5667 -84.6500 278° West 246 283 3,900 -1,500 Descending Atlanta TRACON
05:58PM 33.6167 -84.6333 16° North 231 266 3,100 -480 Descending Atlanta TRACON
05:59PM 33.6167 -84.5667 90° East 181 208 3,000 -540 Descending Atlanta TRACON
06:00PM 33.6167 -84.5167 90° East 159 183 2,100 -840 Descending Atlanta TRACON
06:01PM 33.6167 -84.4667 90° East 144 166 1,400 -720 Descending Atlanta TRACON
06:03PM 33.6333 -84.4167 64° Northeast  Level FlightAware Approximate
06:10PM 33.6367 -84.4279 64° Northeast  Level Estimated